Washington Dulles International Airport
KIAD : now visible

Airfield :











YOU CAN JOIN US ON...

 
LOGIN :

Register | Disclaimer

   EN    FR    IT 

 









Legend :    VFR   Marginal VFR   IFR   Intensive IFR   Very Intensive IFR
Visi :
Ceiling :
>= 8 km
>= 3000ft
5 to 8 km
1000 to 3000 ft
1500m to 5 km
500 to 1000 ft
800 to 1500m
200 to 500 ft
< 800m
< 200 ft
Symbols :   Thunderstorms  Fog  Heavy snow  Heavy precipitations  Wind > 20 kt






- Airport Elevation : 312 ft
- IATA code : IAD


KIAD - Washington Dulles International

CURRENT METAR :
  • 192252Z 20003KT 10SM SCT065 BKN140 BKN180 08/04 A2985 RMK AO2 SLP108 T00830039

EXPIRED METARs :
  • 192152Z 00000KT 10SM BKN140 BKN180 BKN250 11/02 A2983 RMK AO2 SLP100 T01060017
  • 192052Z 00000KT 10SM FEW030 SCT140 BKN180 BKN250 11/03 A2981 RMK AO2 SLP097 T01110028 55002
  • 191952Z 25006KT 10SM FEW030 SCT140 BKN180 BKN250 12/03 A2981 RMK AO2 SLP095 T01170028

TAF KIAD
Valid from the 19 at 21:00 until the 21 at 00:00 UTC


192056Z 1921/2024 27006KT P6SM BKN150
FM200500 33005KT P6SM BKN045
FM201500 32010G18KT P6SM SCT035
FM202100 32011KT P6SM SCT090



MET'MAP, your aeronautical weather chart ! - Copyright ORBIFLY December 2007 - Disclaimer

ORBIFLY MET'MAP TEAM :

Programming & Development : Alexandra Zaïnal
Concept & Development : Baudouin d'Aumeries
Co-Development & Prog : Marc-Olivier Méhu
Technical & hardware support : Manuel Goepfert

Contact : metmap@orbifly.com




SOURCES & CREDITS :

   NOAA       Earth
Advisory